Flight Track Log - Related Links

Times and Time Zones

All times are in EDT time to prevent confusion due to time zone crossing. See the ASQ4577 flight status page for this flight to view local times or setup timezone preferences in your user account.

Time Position Orientation Groundspeed Altitude Reporting Facility
EDT Latitude Longitude Course Direction KTS MPH feet Rate Location/Type
Fri 03:54:59 PM 39.8000 -104.6167 142° Southeast 195 224 7,200  Level Denver TRACON
Fri 03:55:59 PM 39.7500 -104.5667 142° Southeast 234 269 8,400 1,263 Climbing Denver TRACON
Fri 03:56:15 PM 39.7381 -104.5608 159° South 226 260 8,800 1,231 Climbing Denver Center
Fri 03:57:17 PM 39.6789 -104.5039 143° Southeast 259 298 10,000 1,355 Climbing Denver Center
Fri 03:58:19 PM 39.6472 -104.3961 111° Southeast 310 357 11,600 1,016 Climbing Denver Center
Fri 03:59:21 PM 39.6481 -104.2742 89° East 337 388 12,100 242 Climbing Denver Center
Fri 04:00:23 PM 39.6531 -104.1300 87° East 368 423 12,100 581 Level Denver Center
Fri 04:01:25 PM 39.6919 -104.0133 67° East 368 423 13,300 1,512 Climbing Denver Center
Fri 04:02:26 PM 39.7647 -103.9081 48° Northeast 366 421 15,200 1,707 Climbing Denver Center
Fri 04:03:28 PM 39.8342 -103.8072 48° Northeast 374 430 16,800 1,597 Climbing Denver Center
Fri 04:04:30 PM 39.8858 -103.7025 57° Northeast 357 411 18,500 1,597 Climbing Denver Center
Fri 04:05:32 PM 39.9033 -103.5517 81° East 376 433 20,100 1,258 Climbing Denver Center
Fri 04:06:34 PM 39.9200 -103.4167 81° East 385 443 21,100 1,016 Climbing Denver Center
Fri 04:07:36 PM 39.9350 -103.2761 82° East 405 466 22,200 1,355 Climbing Denver Center
Fri 04:08:38 PM 39.9531 -103.1111 82° East 412 474 23,900 1,355 Climbing Denver Center
Fri 04:09:40 PM 39.9694 -102.9703 81° East 412 474 25,000 1,161 Climbing Denver Center
Fri 04:10:42 PM 39.9867 -102.8033 82° East 417 480 26,300 1,161 Climbing Denver Center
Fri 04:11:44 PM 40.0028 -102.6589 82° East 420 483 27,400 1,210 Climbing Denver Center
Fri 04:12:46 PM 40.0200 -102.4942 82° East 414 476 28,800 1,317 Climbing Denver Center
Fri 04:13:47 PM 40.0344 -102.3533 82° East 411 473 30,100 1,366 Climbing Denver Center
Fri 04:14:49 PM 40.0511 -102.1922 82° East 403 464 31,600 1,306 Climbing Denver Center
Fri 04:15:51 PM 40.0658 -102.0567 82° East 398 458 32,800 1,113 Climbing Denver Center
Fri 04:16:53 PM 40.0806 -101.8969 83° East 398 458 33,900 1,016 Climbing Denver Center
Fri 04:17:55 PM 40.0950 -101.7631 82° East 392 451 34,900 532 Climbing Denver Center
Fri 04:18:57 PM 40.1106 -101.6031 83° East 399 459 35,000 48 Climbing Denver Center
Fri 04:19:59 PM 40.1242 -101.4575 83° East 420 483 35,000  Level Denver Center
Fri 04:21:00 PM 40.1450 -101.3058 80° East 442 509 35,000  Level Denver Center
Fri 04:22:02 PM 40.1833 -101.1281 74° East 456 525 35,000  Level Denver Center
Fri 04:23:04 PM 40.2158 -100.9731 75° East 462 532 35,000  Level Denver Center
Fri 04:24:06 PM 40.2528 -100.7925 75° East 462 532 35,000  Level Denver Center
Fri 04:25:08 PM 40.2839 -100.6372 75° East 464 534 35,000  Level Denver Center
Fri 04:26:10 PM 40.3206 -100.4569 75° East 463 533 35,000  Level Denver Center
Fri 04:27:12 PM 40.3519 -100.3014 75° East 463 533 35,000  Level Denver Center
Fri 04:28:13 PM 40.3881 -100.1217 75° East 461 531 35,000  Level Denver Center
Fri 04:29:15 PM 40.4189 -99.9661 75° East 461 531 35,000  Level Denver Center
Fri 04:30:17 PM 40.4508 -99.8031 76° East 458 527 35,000  Level Denver Center
Fri 04:31:19 PM 40.4825 -99.6400 76° East 461 531 35,000  Level Denver Center
Fri 04:32:20 PM 40.5078 -99.5117 75° East 457 526 35,000  Level Denver Center
Fri 04:33:23 PM 40.5506 -99.2850 76° East 457 526 35,000  Level Denver Center
Fri 04:34:21 PM 40.5814 -99.1239 76° East 458 527 35,000  Level Minneapolis Center
Fri 04:35:23 PM 40.6114 -98.9622 76° East 458 527 35,000  Level Minneapolis Center
Fri 04:36:25 PM 40.6425 -98.8003 76° East 459 528 35,000  Level Minneapolis Center
Fri 04:37:27 PM 40.6722 -98.6375 76° East 461 531 35,000  Level Minneapolis Center
Fri 04:38:29 PM 40.7014 -98.4747 77° East 461 531 35,000  Level Minneapolis Center
Fri 04:39:31 PM 40.7369 -98.2803 76° East 459 528 35,000  Level Minneapolis Center
Fri 04:40:33 PM 40.7661 -98.1186 77° East 458 527 35,000  Level Minneapolis Center
Fri 04:41:35 PM 40.7956 -97.9556 77° East 459 528 35,000  Level Minneapolis Center
Fri 04:42:37 PM 40.8239 -97.7928 77° East 457 526 35,000  Level Minneapolis Center
Fri 04:43:40 PM 40.8525 -97.6303 77° East 456 525 35,000  Level Minneapolis Center
Fri 04:44:42 PM 40.8806 -97.4669 77° East 457 526 35,000  Level Minneapolis Center
Fri 04:45:44 PM 40.9108 -97.2953 77° East 459 528 35,000  Level Minneapolis Center
Fri 04:46:46 PM 40.9381 -97.1319 78° East 458 527 35,000  Level Minneapolis Center
Fri 04:47:48 PM 40.9714 -96.9358 77° East 457 526 35,000  Level Minneapolis Center
Fri 04:48:50 PM 40.9983 -96.7714 78° East 458 527 35,000  Level Minneapolis Center
Fri 04:49:52 PM 41.0267 -96.6078 77° East 458 527 35,000  Level Minneapolis Center
Fri 04:50:54 PM 41.0528 -96.4436 78° East 458 527 35,000  Level Minneapolis Center
Fri 04:51:56 PM 41.0794 -96.2817 78° East 456 525 35,000  Level Minneapolis Center
Fri 04:52:58 PM 41.1106 -96.0867 78° East 458 527 35,000  Level Minneapolis Center
Fri 04:54:00 PM 41.1372 -95.9219 78° East 464 534 35,000  Level Minneapolis Center
Fri 04:55:02 PM 41.1631 -95.7589 78° East 454 522 35,000  Level Minneapolis Center
Fri 04:56:04 PM 41.1861 -95.5978 79° East 457 526 35,000  Level Minneapolis Center
Fri 04:57:06 PM 41.2100 -95.4336 79° East 456 525 35,000  Level Minneapolis Center
Fri 04:58:08 PM 41.2392 -95.2356 79° East 457 526 35,000  Level Minneapolis Center
Fri 04:59:11 PM 41.2608 -95.0697 80° East 458 527 35,000  Level Minneapolis Center
Fri 05:00:13 PM 41.2842 -94.9042 79° East 457 526 35,000  Level Minneapolis Center
Fri 05:01:15 PM 41.3061 -94.7389 80° East 457 526 35,000  Level Minneapolis Center
Fri 05:02:17 PM 41.3275 -94.5722 80° East 457 526 35,000  Level Minneapolis Center
Fri 05:03:19 PM 41.3561 -94.3714 79° East 460 529 35,000  Level Minneapolis Center
Fri 05:04:21 PM 41.3781 -94.2053 80° East 458 527 35,000  Level Minneapolis Center
Fri 05:05:23 PM 41.3964 -94.0617 80° East 457 526 35,000  Level Minneapolis Center
Fri 05:06:37 PM 41.4211 -93.8633 80° East 456 525 35,000  Level Minneapolis Center
Fri 05:07:39 PM 41.4483 -93.6631 80° East 459 528 35,000  Level Minneapolis Center
Fri 05:09:44 PM 41.4908 -93.3267 80° East 464 534 35,000  Level Minneapolis Center
Fri 05:10:58 PM 41.5106 -93.1589 81° East 462 532 35,000  Level Minneapolis Center
Fri 05:12:00 PM 41.5400 -92.9244 80° East 461 531 35,000  Level Minneapolis Center
Fri 05:13:02 PM 41.5597 -92.7564 81° East 461 531 35,000  Level Minneapolis Center
Fri 05:14:04 PM 41.5794 -92.5897 81° East 459 528 35,000  Level Minneapolis Center
Fri 05:14:53 PM 41.5969 -92.4378 81° East 461 531 35,000  Level Chicago Center
Fri 05:15:55 PM 41.6156 -92.2700 82° East 462 532 35,000  Level Chicago Center
Fri 05:16:57 PM 41.6347 -92.1014 81° East 464 534 35,000  Level Chicago Center
Fri 05:18:00 PM 41.6536 -91.9339 81° East 464 534 35,000  Level Chicago Center
Fri 05:19:02 PM 41.6756 -91.7339 82° East 459 528 35,000  Level Chicago Center
Fri 05:20:04 PM 41.6942 -91.5656 82° East 461 531 35,000  Level Chicago Center
Fri 05:21:06 PM 41.7117 -91.3994 82° East 460 529 35,000  Level Chicago Center
Fri 05:22:08 PM 41.7286 -91.2350 82° East 454 522 35,000  Level Chicago Center
Fri 05:23:10 PM 41.7450 -91.0714 82° East 450 518 35,000  Level Chicago Center
Fri 05:24:12 PM 41.7647 -90.8767 82° East 447 514 35,000  Level Chicago Center
Fri 05:25:14 PM 41.7819 -90.7136 82° East 448 516 35,000  Level Chicago Center
Fri 05:26:16 PM 41.7978 -90.5492 83° East 450 518 35,000  Level Chicago Center
Fri 05:27:18 PM 41.8133 -90.3858 83° East 448 516 35,000  Level Chicago Center
Fri 05:28:21 PM 41.8333 -90.1886 82° East 450 518 35,000  Level Chicago Center
Fri 05:29:23 PM 41.8486 -90.0244 83° East 450 518 35,000  Level Chicago Center
Fri 05:30:25 PM 41.8625 -89.8606 83° East 444 511 35,000  Level Chicago Center
Fri 05:31:27 PM 41.8781 -89.6950 83° East 448 516 35,000  Level Chicago Center
Fri 05:32:29 PM 41.8928 -89.5300 83° East 449 517 35,000  Level Chicago Center
Fri 05:33:31 PM 41.9117 -89.3272 83° East 457 526 35,000  Level Chicago Center
Fri 05:34:33 PM 41.9250 -89.1619 84° East 449 517 35,000  Level Chicago Center
Fri 05:35:35 PM 41.9392 -88.9953 83° East 452 520 35,000  Level Chicago Center
Fri 05:36:37 PM 41.9533 -88.8275 83° East 453 521 35,000  Level Chicago Center
Fri 05:37:39 PM 41.9669 -88.6578 84° East 458 527 35,000  Level Chicago Center
Fri 05:38:42 PM 41.9789 -88.4556 85° East 453 521 35,000  Level Chicago Center
Fri 05:39:44 PM 41.9847 -88.2964 87° East 458 527 35,000  Level Chicago Center
Fri 05:40:46 PM 41.9908 -88.1125 87° East 461 531 35,000  Level Chicago Center
Fri 05:41:48 PM 41.9953 -87.9408 88° East 459 528 35,000  Level Chicago Center
Fri 05:42:50 PM 42.0011 -87.7683 87° East 462 532 35,000  Level Chicago Center
Fri 05:43:52 PM 42.0058 -87.5950 88° East 463 533 35,000  Level Chicago Center
Fri 05:44:54 PM 42.0111 -87.4236 88° East 460 529 35,000  Level Chicago Center
Fri 05:45:56 PM 42.0144 -87.2150 89° East 464 534 35,000  Level Chicago Center
Fri 05:46:58 PM 42.0186 -87.0403 88° East 467 537 35,000  Level Chicago Center
Fri 05:48:00 PM 42.0231 -86.8683 88° East 464 534 35,000  Level Chicago Center
Fri 05:49:02 PM 42.0269 -86.6847 88° East 466 536 35,000  Level Chicago Center
Fri 05:50:05 PM 42.0311 -86.5097 88° East 468 539 35,000  Level Chicago Center
Fri 05:51:07 PM 42.0342 -86.3336 89° East 470 541 35,000  Level Chicago Center
Fri 05:52:09 PM 42.0367 -86.1578 89° East 470 541 35,000  Level Chicago Center
Fri 05:53:11 PM 42.0397 -85.9589 89° East 472 543 35,000  Level Chicago Center
Fri 05:54:13 PM 42.0422 -85.7828 89° East 474 545 35,000 -387 Level Chicago Center
Fri 05:55:15 PM 42.0450 -85.6050 89° East 477 549 34,200 -871 Descending Chicago Center
Fri 05:56:17 PM 42.0469 -85.4228 89° East 486 559 33,200 -637 Descending Chicago Center
Fri 05:57:08 PM 42.0525 -85.2539 87° East 467 537 33,000 -108 Descending Cleveland Center
Fri 05:58:08 PM 42.0514 -85.0747 90° East 467 537 33,000  Level Cleveland Center
Fri 05:59:08 PM 42.0519 -84.8928 90° East 473 544 33,000  Level Cleveland Center
Fri 06:00:08 PM 42.0544 -84.7139 89° East 479 551 33,000  Level Cleveland Center
Fri 06:01:08 PM 42.0525 -84.5319 91° East 479 551 33,000  Level Cleveland Center
Fri 06:02:08 PM 42.0544 -84.3531 89° East 479 551 33,000  Level Cleveland Center
Fri 06:03:08 PM 42.0503 -84.1572 92° East 479 551 33,000 -400 Level Cleveland Center
Fri 06:04:08 PM 42.0494 -83.9753 90° East 479 551 32,200 -1,950 Descending Cleveland Center
Fri 06:05:08 PM 42.0464 -83.7933 91° East 479 551 29,100 -3,150 Descending Cleveland Center
Fri 06:06:08 PM 42.0450 -83.6142 91° East 479 551 25,900 -2,500 Descending Cleveland Center
Fri 06:07:08 PM 42.0433 -83.4325 91° East 479 551 24,100 -950 Descending Cleveland Center
Fri 06:08:08 PM 42.0283 -83.2781 97° East 473 544 24,000 -800 Descending Cleveland Center
Fri 06:09:08 PM 42.0097 -83.0844 97° East 473 544 22,500 -1,950 Descending Cleveland Center
Fri 06:10:08 PM 41.9925 -82.9133 98° East 466 536 20,100 -2,350 Descending Cleveland Center
Fri 06:11:08 PM 41.9769 -82.7533 97° East 453 521 17,800 -2,350 Descending Cleveland Center
Fri 06:12:08 PM 41.9631 -82.5939 97° East 435 501 15,400 -2,505 Descending Cleveland Center
Fri 06:12:51 PM 41.9397 -82.4953 108° East 398 458 13,500 -2,500 Descending Cleveland Center
Fri 06:13:08 PM 41.9281 -82.4531 110° East 414 476 12,900 -2,471 Descending Cleveland Center
Fri 06:13:25 PM 41.9161 -82.4192 115° Southeast 399 459 12,100 -2,526 Descending Cleveland Center
Fri 06:13:46 PM 41.9003 -82.3686 113° Southeast 389 448 11,300 -1,814 Descending Cleveland Center
Fri 06:14:08 PM 41.8864 -82.3208 111° Southeast 398 458 10,800 -1,500 Descending Cleveland Center
Fri 06:14:26 PM 41.8764 -82.2925 115° Southeast 366 421 10,300 -1,077 Descending Cleveland Center
Fri 06:14:47 PM 41.8625 -82.2447 111° Southeast 355 409 10,100 -429 Descending Cleveland Center
Fri 06:15:08 PM 41.8483 -82.2028 114° Southeast 375 432 10,000 -130 Descending Cleveland Center
Fri 06:15:33 PM 41.8242 -82.1575 126° Southeast 354 407 10,000  Level Cleveland Center
Fri 06:16:08 PM 41.7789 -82.1119 143° Southeast 343 395 10,000  Level Cleveland Center
Fri 06:16:34 PM 41.7500 -82.0889 149° Southeast 354 407 10,000  Level Cleveland Center
Fri 06:17:08 PM 41.6944 -82.0375 145° Southeast 351 404 10,000  Level Cleveland Center
Fri 06:17:37 PM 41.6572 -82.0061 148° Southeast 358 412 10,000 -100 Level Cleveland Center
Fri 06:18:08 PM 41.6200 -81.9692 143° Southeast 346 398 9,900 -700 Descending Cleveland Center
Fri 06:18:37 PM 41.5975 -81.9464 143° Southeast 323 372 9,300 -1,700 Descending Cleveland Center
Fri 06:19:08 PM 41.5519 -81.9261 162° South 293 337 8,200 -1,672 Descending Cleveland Center
Fri 06:19:38 PM 41.5269 -81.9200 170° South 285 328 7,600 -1,200 Descending Cleveland Center
Fri 06:20:08 PM 41.4792 -81.9106 172° South 267 307 7,000 -885 Descending Cleveland Center
Fri 06:20:39 PM 41.4561 -81.9214 199° South 268 308 6,700 -1,400 Descending Cleveland Center
Fri 06:21:08 PM 41.4264 -81.9678 229° Southwest 228 262 5,600 -1,355 Descending Cleveland Center
Fri 06:21:41 PM 41.4133 -81.9953 238° Southwest 258 297 5,300 -1,400 Descending Cleveland Center
Fri 06:22:08 PM 41.3817 -82.0361 224° Southwest 235 270 4,200 -1,900 Descending Cleveland Center
Fri 06:22:41 PM 41.3464 -82.0269 169° South 233 268 3,400 -900 Descending Cleveland Center
Fri 06:23:48 PM 41.3303 -81.9739 112° Southeast 142 163 2,700 -609 Descending Cleveland Center
Fri 06:24:49 PM 41.3558 -81.9414 44° Northeast 122 140 2,100 -645 Descending Cleveland Center
Fri 06:25:49 PM 41.3792 -81.9058 49° Northeast 124 143 1,400 -700 Descending Cleveland Center
Fri 06:27:00 PM 41.4000 -81.8500 46° Northeast  Level FlightAware Approximate

Login

Don't have an account? Register now (free) for customized features, flight alerts, and more!